sensor_id;sensor_type;location;lat;lon;timestamp;pressure;altitude;pressure_sealevel;temperature;humidity
35989;BME280;22064;42.672;23.282;2023-04-06T00:02:15;94425.06;;;-0.33;100.00
35989;BME280;22064;42.672;23.282;2023-04-06T00:04:41;94414.69;;;-0.47;100.00
35989;BME280;22064;42.672;23.282;2023-04-06T00:07:07;94413.84;;;-0.32;100.00
35989;BME280;22064;42.672;23.282;2023-04-06T00:09:33;94405.16;;;-0.16;100.00
35989;BME280;22064;42.672;23.282;2023-04-06T00:12:00;94399.66;;;-0.35;100.00
35989;BME280;22064;42.672;23.282;2023-04-06T00:14:26;94396.31;;;-0.35;100.00
35989;BME280;22064;42.672;23.282;2023-04-06T00:16:52;94389.84;;;-0.31;100.00
35989;BME280;22064;42.672;23.282;2023-04-06T00:19:18;94381.03;;;-0.29;100.00
35989;BME280;22064;42.672;23.282;2023-04-06T00:21:44;94385.78;;;-0.26;100.00
35989;BME280;22064;42.672;23.282;2023-04-06T00:24:10;94381.94;;;-0.36;100.00
35989;BME280;22064;42.672;23.282;2023-04-06T00:26:36;94383.09;;;-0.39;100.00
35989;BME280;22064;42.672;23.282;2023-04-06T00:29:02;94376.28;;;-0.32;100.00
35989;BME280;22064;42.672;23.282;2023-04-06T00:31:28;94373.19;;;-0.27;100.00
35989;BME280;22064;42.672;23.282;2023-04-06T00:33:54;94386.50;;;-0.32;100.00
35989;BME280;22064;42.672;23.282;2023-04-06T00:36:20;94376.97;;;-0.23;100.00
35989;BME280;22064;42.672;23.282;2023-04-06T00:38:46;94381.03;;;-0.29;100.00
35989;BME280;22064;42.672;23.282;2023-04-06T00:41:12;94374.66;;;-0.18;100.00
35989;BME280;22064;42.672;23.282;2023-04-06T00:43:39;94367.66;;;-0.31;100.00
35989;BME280;22064;42.672;23.282;2023-04-06T00:46:05;94375.91;;;-0.29;100.00
35989;BME280;22064;42.672;23.282;2023-04-06T00:48:31;94383.00;;;-0.31;100.00
35989;BME280;22064;42.672;23.282;2023-04-06T00:50:59;94364.94;;;-0.22;100.00
35989;BME280;22064;42.672;23.282;2023-04-06T00:53:25;94378.91;;;-0.25;100.00
35989;BME280;22064;42.672;23.282;2023-04-06T00:55:51;94374.97;;;-0.28;100.00
35989;BME280;22064;42.672;23.282;2023-04-06T00:58:17;94373.97;;;-0.27;100.00
35989;BME280;22064;42.672;23.282;2023-04-06T01:00:50;94363.28;;;-0.15;100.00
35989;BME280;22064;42.672;23.282;2023-04-06T01:03:18;94372.47;;;-0.21;100.00
35989;BME280;22064;42.672;23.282;2023-04-06T01:05:44;94367.16;;;0.02;100.00
35989;BME280;22064;42.672;23.282;2023-04-06T01:08:18;94372.78;;;-0.09;100.00
35989;BME280;22064;42.672;23.282;2023-04-06T01:10:45;94367.28;;;-0.28;100.00
35989;BME280;22064;42.672;23.282;2023-04-06T01:13:24;94366.41;;;-0.13;100.00
35989;BME280;22064;42.672;23.282;2023-04-06T01:15:57;94353.81;;;-0.15;100.00
35989;BME280;22064;42.672;23.282;2023-04-06T01:18:44;94368.75;;;-0.18;100.00
35989;BME280;22064;42.672;23.282;2023-04-06T01:21:20;94361.50;;;-0.15;100.00
35989;BME280;22064;42.672;23.282;2023-04-06T01:24:09;94364.94;;;-0.22;100.00
35989;BME280;22064;42.672;23.282;2023-04-06T01:26:58;94361.44;;;0.00;100.00
35989;BME280;22064;42.672;23.282;2023-04-06T01:29:29;94356.91;;;-0.19;100.00
35989;BME280;22064;42.672;23.282;2023-04-06T01:31:55;94363.75;;;-0.27;100.00
35989;BME280;22064;42.672;23.282;2023-04-06T01:34:21;94355.50;;;-0.22;100.00
35989;BME280;22064;42.672;23.282;2023-04-06T01:36:48;94351.84;;;-0.13;100.00
35989;BME280;22064;42.672;23.282;2023-04-06T01:39:31;94360.88;;;-0.17;100.00
35989;BME280;22064;42.672;23.282;2023-04-06T01:42:00;94345.59;;;-0.10;100.00
35989;BME280;22064;42.672;23.282;2023-04-06T01:44:27;94351.38;;;-0.23;100.00
35989;BME280;22064;42.672;23.282;2023-04-06T01:47:04;94352.72;;;-0.06;100.00
35989;BME280;22064;42.672;23.282;2023-04-06T01:49:30;94349.84;;;-0.17;100.00
35989;BME280;22064;42.672;23.282;2023-04-06T01:51:57;94355.97;;;-0.18;100.00
35989;BME280;22064;42.672;23.282;2023-04-06T01:54:23;94349.50;;;-0.14;100.00
35989;BME280;22064;42.672;23.282;2023-04-06T01:57:15;94330.63;;;0.15;100.00
35989;BME280;22064;42.672;23.282;2023-04-06T01:59:46;94338.00;;;0.03;100.00
35989;BME280;22064;42.672;23.282;2023-04-06T02:02:20;94342.78;;;0.06;100.00
35989;BME280;22064;42.672;23.282;2023-04-06T02:04:55;94346.56;;;0.10;100.00
35989;BME280;22064;42.672;23.282;2023-04-06T02:07:22;94340.47;;;-0.10;100.00
35989;BME280;22064;42.672;23.282;2023-04-06T02:09:48;94311.09;;;-0.14;100.00
35989;BME280;22064;42.672;23.282;2023-04-06T02:12:23;94331.38;;;0.09;100.00
35989;BME280;22064;42.672;23.282;2023-04-06T02:14:49;94331.75;;;0.06;100.00
35989;BME280;22064;42.672;23.282;2023-04-06T02:17:15;94296.28;;;-0.19;100.00
35989;BME280;22064;42.672;23.282;2023-04-06T02:19:41;94340.84;;;-0.13;100.00
35989;BME280;22064;42.672;23.282;2023-04-06T02:22:08;94338.63;;;0.05;100.00
35989;BME280;22064;42.672;23.282;2023-04-06T02:24:34;94325.00;;;-0.02;100.00
35989;BME280;22064;42.672;23.282;2023-04-06T02:27:01;94321.66;;;-0.03;100.00
35989;BME280;22064;42.672;23.282;2023-04-06T02:29:27;94329.84;;;0.14;100.00
35989;BME280;22064;42.672;23.282;2023-04-06T02:31:53;94335.59;;;-0.05;100.00
35989;BME280;22064;42.672;23.282;2023-04-06T02:34:20;94326.44;;;0.07;100.00
35989;BME280;22064;42.672;23.282;2023-04-06T02:36:49;94323.75;;;0.15;100.00
35989;BME280;22064;42.672;23.282;2023-04-06T02:39:15;94338.63;;;0.27;100.00
35989;BME280;22064;42.672;23.282;2023-04-06T02:41:41;94337.94;;;0.18;100.00
35989;BME280;22064;42.672;23.282;2023-04-06T02:44:08;94344.75;;;0.04;100.00
35989;BME280;22064;42.672;23.282;2023-04-06T02:46:42;94342.47;;;0.16;100.00
35989;BME280;22064;42.672;23.282;2023-04-06T02:49:07;94317.97;;;0.07;100.00
35989;BME280;22064;42.672;23.282;2023-04-06T02:51:34;94330.41;;;0.10;100.00
35989;BME280;22064;42.672;23.282;2023-04-06T02:54:15;94326.78;;;-0.03;100.00
35989;BME280;22064;42.672;23.282;2023-04-06T02:56:41;94333.28;;;0.00;100.00
35989;BME280;22064;42.672;23.282;2023-04-06T02:59:08;94329.50;;;-0.04;100.00
35989;BME280;22064;42.672;23.282;2023-04-06T03:01:34;94326.09;;;-0.11;100.00
35989;BME280;22064;42.672;23.282;2023-04-06T03:04:03;94331.38;;;-0.13;100.00
35989;BME280;22064;42.672;23.282;2023-04-06T03:06:29;94331.75;;;0.06;100.00
35989;BME280;22064;42.672;23.282;2023-04-06T03:09:02;94330.09;;;0.19;100.00
35989;BME280;22064;42.672;23.282;2023-04-06T03:11:29;94335.09;;;0.06;100.00
35989;BME280;22064;42.672;23.282;2023-04-06T03:13:55;94334.72;;;0.09;100.00
35989;BME280;22064;42.672;23.282;2023-04-06T03:16:21;94335.91;;;0.07;100.00
35989;BME280;22064;42.672;23.282;2023-04-06T03:18:47;94331.50;;;0.22;100.00
35989;BME280;22064;42.672;23.282;2023-04-06T03:21:14;94341.38;;;0.25;100.00
35989;BME280;22064;42.672;23.282;2023-04-06T03:23:47;94330.06;;;0.13;100.00
35989;BME280;22064;42.672;23.282;2023-04-06T03:26:16;94338.88;;;0.10;100.00
35989;BME280;22064;42.672;23.282;2023-04-06T03:28:42;94290.88;;;-0.09;100.00
35989;BME280;22064;42.672;23.282;2023-04-06T03:31:08;94326.44;;;0.29;100.00
35989;BME280;22064;42.672;23.282;2023-04-06T03:33:40;94338.00;;;0.03;100.00
35989;BME280;22064;42.672;23.282;2023-04-06T03:36:09;94329.06;;;0.14;100.00
35989;BME280;22064;42.672;23.282;2023-04-06T03:38:39;94324.31;;;0.11;100.00
35989;BME280;22064;42.672;23.282;2023-04-06T03:41:10;94322.03;;;0.22;100.00
35989;BME280;22064;42.672;23.282;2023-04-06T03:43:38;94327.91;;;0.16;100.00
35989;BME280;22064;42.672;23.282;2023-04-06T03:46:04;94320.41;;;0.15;100.00
35989;BME280;22064;42.672;23.282;2023-04-06T03:48:30;94329.53;;;0.24;100.00
35989;BME280;22064;42.672;23.282;2023-04-06T03:51:01;94315.31;;;0.21;100.00
35989;BME280;22064;42.672;23.282;2023-04-06T03:53:27;94317.75;;;0.30;100.00
35989;BME280;22064;42.672;23.282;2023-04-06T03:55:53;94321.56;;;0.40;100.00
35989;BME280;22064;42.672;23.282;2023-04-06T03:58:20;94329.19;;;0.34;100.00
35989;BME280;22064;42.672;23.282;2023-04-06T04:00:46;94315.28;;;0.43;100.00
35989;BME280;22064;42.672;23.282;2023-04-06T04:03:12;94321.41;;;0.42;100.00
35989;BME280;22064;42.672;23.282;2023-04-06T04:05:38;94317.66;;;0.44;100.00
35989;BME280;22064;42.672;23.282;2023-04-06T04:08:04;94326.06;;;0.32;100.00
35989;BME280;22064;42.672;23.282;2023-04-06T04:10:30;94326.75;;;0.47;100.00
35989;BME280;22064;42.672;23.282;2023-04-06T04:12:56;94328.84;;;0.37;100.00
35989;BME280;22064;42.672;23.282;2023-04-06T04:15:22;94326.47;;;0.35;100.00
35989;BME280;22064;42.672;23.282;2023-04-06T04:17:48;94329.56;;;0.31;100.00
35989;BME280;22064;42.672;23.282;2023-04-06T04:20:16;94318.84;;;0.42;100.00
35989;BME280;22064;42.672;23.282;2023-04-06T04:22:42;94317.47;;;0.46;100.00
35989;BME280;22064;42.672;23.282;2023-04-06T04:25:10;94337.53;;;0.42;100.00
35989;BME280;22064;42.672;23.282;2023-04-06T04:27:41;94330.06;;;0.41;100.00
35989;BME280;22064;42.672;23.282;2023-04-06T04:30:08;94331.44;;;0.43;100.00
35989;BME280;22064;42.672;23.282;2023-04-06T04:32:34;94323.06;;;0.56;100.00
35989;BME280;22064;42.672;23.282;2023-04-06T04:35:03;94341.56;;;0.52;100.00
35989;BME280;22064;42.672;23.282;2023-04-06T04:37:36;94320.72;;;0.61;100.00
35989;BME280;22064;42.672;23.282;2023-04-06T04:40:03;94327.00;;;0.59;100.00
35989;BME280;22064;42.672;23.282;2023-04-06T04:42:35;94327.09;;;0.72;100.00
35989;BME280;22064;42.672;23.282;2023-04-06T04:45:04;94329.78;;;0.57;100.00
35989;BME280;22064;42.672;23.282;2023-04-06T04:47:35;94327.72;;;0.46;100.00
35989;BME280;22064;42.672;23.282;2023-04-06T04:50:02;94308.63;;;0.49;100.00
35989;BME280;22064;42.672;23.282;2023-04-06T04:52:29;94315.50;;;0.76;100.00
35989;BME280;22064;42.672;23.282;2023-04-06T04:55:15;94328.88;;;0.43;100.00
35989;BME280;22064;42.672;23.282;2023-04-06T04:57:46;94324.00;;;0.49;100.00
35989;BME280;22064;42.672;23.282;2023-04-06T05:00:12;94323.56;;;0.73;100.00
35989;BME280;22064;42.672;23.282;2023-04-06T05:02:41;94317.94;;;0.56;100.00
35989;BME280;22064;42.672;23.282;2023-04-06T05:05:15;94325.94;;;0.46;100.00
35989;BME280;22064;42.672;23.282;2023-04-06T05:07:41;94342.72;;;0.49;100.00
35989;BME280;22064;42.672;23.282;2023-04-06T05:10:12;94315.38;;;0.56;100.00
35989;BME280;22064;42.672;23.282;2023-04-06T05:12:48;94314.63;;;0.62;100.00
35989;BME280;22064;42.672;23.282;2023-04-06T05:15:14;94319.22;;;0.74;100.00
35989;BME280;22064;42.672;23.282;2023-04-06T05:17:41;94317.56;;;0.59;100.00
35989;BME280;22064;42.672;23.282;2023-04-06T05:20:10;94311.63;;;0.59;100.00
35989;BME280;22064;42.672;23.282;2023-04-06T05:22:44;94321.72;;;0.60;100.00
35989;BME280;22064;42.672;23.282;2023-04-06T05:25:10;94310.94;;;0.43;100.00
35989;BME280;22064;42.672;23.282;2023-04-06T05:27:37;94303.94;;;0.59;100.00
35989;BME280;22064;42.672;23.282;2023-04-06T05:30:09;94326.25;;;0.65;100.00
35989;BME280;22064;42.672;23.282;2023-04-06T05:32:41;94307.47;;;0.51;100.00
35989;BME280;22064;42.672;23.282;2023-04-06T05:35:09;94317.94;;;0.56;100.00
35989;BME280;22064;42.672;23.282;2023-04-06T05:37:35;94306.72;;;0.57;100.00
35989;BME280;22064;42.672;23.282;2023-04-06T05:40:02;94320.13;;;0.59;100.00
35989;BME280;22064;42.672;23.282;2023-04-06T05:42:41;94321.25;;;0.85;100.00
35989;BME280;22064;42.672;23.282;2023-04-06T05:45:11;94317.91;;;0.84;100.00
35989;BME280;22064;42.672;23.282;2023-04-06T05:47:43;94310.81;;;0.86;100.00
35989;BME280;22064;42.672;23.282;2023-04-06T05:50:21;94296.31;;;0.65;100.00
35989;BME280;22064;42.672;23.282;2023-04-06T05:52:48;94303.91;;;0.52;100.00
35989;BME280;22064;42.672;23.282;2023-04-06T05:55:17;94312.31;;;0.74;100.00
35989;BME280;22064;42.672;23.282;2023-04-06T05:57:48;94306.72;;;0.99;100.00
35989;BME280;22064;42.672;23.282;2023-04-06T06:00:17;94307.50;;;0.99;100.00
35989;BME280;22064;42.672;23.282;2023-04-06T06:02:53;94269.81;;;0.93;100.00
35989;BME280;22064;42.672;23.282;2023-04-06T06:05:23;94300.50;;;1.21;100.00
35989;BME280;22064;42.672;23.282;2023-04-06T06:07:50;94305.59;;;1.08;100.00
35989;BME280;22064;42.672;23.282;2023-04-06T06:10:16;94317.44;;;0.74;100.00
35989;BME280;22064;42.672;23.282;2023-04-06T06:12:42;94302.00;;;0.61;100.00
35989;BME280;22064;42.672;23.282;2023-04-06T06:15:08;94308.22;;;0.80;100.00
35989;BME280;22064;42.672;23.282;2023-04-06T06:17:39;94297.13;;;0.66;100.00
35989;BME280;22064;42.672;23.282;2023-04-06T06:20:08;94298.94;;;0.79;100.00
35989;BME280;22064;42.672;23.282;2023-04-06T06:22:35;94296.91;;;1.09;100.00
35989;BME280;22064;42.672;23.282;2023-04-06T06:25:02;94311.97;;;1.25;100.00
35989;BME280;22064;42.672;23.282;2023-04-06T06:27:28;94315.75;;;0.88;100.00
35989;BME280;22064;42.672;23.282;2023-04-06T06:29:54;94306.06;;;1.25;100.00
35989;BME280;22064;42.672;23.282;2023-04-06T06:32:22;94293.84;;;1.40;100.00
35989;BME280;22064;42.672;23.282;2023-04-06T06:34:52;94305.09;;;1.32;100.00
35989;BME280;22064;42.672;23.282;2023-04-06T06:37:18;94306.09;;;1.38;100.00
35989;BME280;22064;42.672;23.282;2023-04-06T06:39:44;94302.78;;;1.03;100.00
35989;BME280;22064;42.672;23.282;2023-04-06T06:42:10;94322.72;;;1.01;100.00
35989;BME280;22064;42.672;23.282;2023-04-06T06:44:47;94314.25;;;1.00;100.00
35989;BME280;22064;42.672;23.282;2023-04-06T06:47:13;94319.16;;;1.02;100.00
35989;BME280;22064;42.672;23.282;2023-04-06T06:49:39;94295.38;;;1.21;100.00
35989;BME280;22064;42.672;23.282;2023-04-06T06:52:06;94311.34;;;1.17;100.00
35989;BME280;22064;42.672;23.282;2023-04-06T06:54:32;94317.56;;;0.94;100.00
35989;BME280;22064;42.672;23.282;2023-04-06T06:56:58;94311.94;;;0.77;100.00
35989;BME280;22064;42.672;23.282;2023-04-06T06:59:25;94313.53;;;0.78;100.00
35989;BME280;22064;42.672;23.282;2023-04-06T07:01:52;94320.09;;;0.87;100.00
35989;BME280;22064;42.672;23.282;2023-04-06T07:04:19;94302.75;;;0.89;100.00
35989;BME280;22064;42.672;23.282;2023-04-06T07:06:45;94323.88;;;0.98;100.00
35989;BME280;22064;42.672;23.282;2023-04-06T07:09:11;94304.78;;;1.07;100.00
35989;BME280;22064;42.672;23.282;2023-04-06T07:11:37;94324.16;;;1.17;100.00
35989;BME280;22064;42.672;23.282;2023-04-06T07:14:05;94306.00;;;1.11;100.00
35989;BME280;22064;42.672;23.282;2023-04-06T07:16:31;94310.75;;;1.14;100.00
35989;BME280;22064;42.672;23.282;2023-04-06T07:18:57;94297.94;;;1.21;100.00
35989;BME280;22064;42.672;23.282;2023-04-06T07:21:23;94296.13;;;1.15;100.00
35989;BME280;22064;42.672;23.282;2023-04-06T07:23:49;94300.00;;;1.52;100.00
35989;BME280;22064;42.672;23.282;2023-04-06T07:26:16;94289.72;;;1.46;100.00
35989;BME280;22064;42.672;23.282;2023-04-06T07:28:42;94299.16;;;1.25;100.00
35989;BME280;22064;42.672;23.282;2023-04-06T07:31:09;94290.72;;;1.51;100.00
35989;BME280;22064;42.672;23.282;2023-04-06T07:33:35;94312.47;;;1.62;100.00
35989;BME280;22064;42.672;23.282;2023-04-06T07:36:01;94305.16;;;1.59;100.00
35989;BME280;22064;42.672;23.282;2023-04-06T07:38:28;94294.28;;;1.50;100.00
35989;BME280;22064;42.672;23.282;2023-04-06T07:40:54;94312.66;;;1.67;100.00
35989;BME280;22064;42.672;23.282;2023-04-06T07:43:20;94305.81;;;1.88;100.00
35989;BME280;22064;42.672;23.282;2023-04-06T07:45:47;94315.63;;;1.71;100.00
35989;BME280;22064;42.672;23.282;2023-04-06T07:48:15;94312.69;;;1.74;100.00
35989;BME280;22064;42.672;23.282;2023-04-06T07:50:42;94315.81;;;1.56;100.00
35989;BME280;22064;42.672;23.282;2023-04-06T07:53:08;94304.16;;;1.53;100.00
35989;BME280;22064;42.672;23.282;2023-04-06T07:55:36;94297.50;;;1.79;100.00
35989;BME280;22064;42.672;23.282;2023-04-06T07:58:02;94287.53;;;1.36;100.00
35989;BME280;22064;42.672;23.282;2023-04-06T08:00:28;94302.63;;;1.66;100.00
35989;BME280;22064;42.672;23.282;2023-04-06T08:02:54;94297.47;;;1.66;100.00
35989;BME280;22064;42.672;23.282;2023-04-06T08:05:20;94288.00;;;1.86;100.00
35989;BME280;22064;42.672;23.282;2023-04-06T08:07:46;94297.31;;;1.87;100.00
35989;BME280;22064;42.672;23.282;2023-04-06T08:10:12;94296.31;;;2.15;100.00
35989;BME280;22064;42.672;23.282;2023-04-06T08:12:38;94288.56;;;1.68;100.00
35989;BME280;22064;42.672;23.282;2023-04-06T08:15:05;94307.19;;;1.90;100.00
35989;BME280;22064;42.672;23.282;2023-04-06T08:17:32;94313.13;;;1.84;100.00
35989;BME280;22064;42.672;23.282;2023-04-06T08:19:59;94303.03;;;2.29;100.00
35989;BME280;22064;42.672;23.282;2023-04-06T08:22:26;94315.91;;;2.16;100.00
35989;BME280;22064;42.672;23.282;2023-04-06T08:24:52;94294.94;;;2.32;100.00
35989;BME280;22064;42.672;23.282;2023-04-06T08:27:18;94293.75;;;2.01;100.00
35989;BME280;22064;42.672;23.282;2023-04-06T08:29:44;94298.44;;;2.77;100.00
35989;BME280;22064;42.672;23.282;2023-04-06T08:32:10;94317.81;;;2.87;100.00
35989;BME280;22064;42.672;23.282;2023-04-06T08:34:36;94302.69;;;3.10;100.00
35989;BME280;22064;42.672;23.282;2023-04-06T08:37:02;94303.78;;;2.76;100.00
35989;BME280;22064;42.672;23.282;2023-04-06T08:39:28;94317.78;;;2.80;100.00
35989;BME280;22064;42.672;23.282;2023-04-06T08:41:56;94319.63;;;2.60;100.00
35989;BME280;22064;42.672;23.282;2023-04-06T08:44:23;94324.31;;;2.83;100.00
35989;BME280;22064;42.672;23.282;2023-04-06T08:46:50;94328.41;;;3.10;100.00
35989;BME280;22064;42.672;23.282;2023-04-06T08:49:16;94315.63;;;2.84;100.00
35989;BME280;22064;42.672;23.282;2023-04-06T08:51:42;94324.78;;;2.53;100.00
35989;BME280;22064;42.672;23.282;2023-04-06T08:54:09;94304.53;;;2.83;100.00
35989;BME280;22064;42.672;23.282;2023-04-06T08:56:38;94319.22;;;2.63;100.00
35989;BME280;22064;42.672;23.282;2023-04-06T08:59:06;94305.22;;;3.17;100.00
35989;BME280;22064;42.672;23.282;2023-04-06T09:01:33;94304.56;;;2.76;100.00
35989;BME280;22064;42.672;23.282;2023-04-06T09:04:07;94302.59;;;2.78;100.00
35989;BME280;22064;42.672;23.282;2023-04-06T09:06:36;94302.81;;;2.64;100.00
35989;BME280;22064;42.672;23.282;2023-04-06T09:09:03;94296.16;;;3.08;100.00
35989;BME280;22064;42.672;23.282;2023-04-06T09:11:29;94286.75;;;3.40;100.00
35989;BME280;22064;42.672;23.282;2023-04-06T09:14:06;94296.94;;;3.15;100.00
35989;BME280;22064;42.672;23.282;2023-04-06T09:16:39;94293.88;;;3.38;100.00
35989;BME280;22064;42.672;23.282;2023-04-06T09:19:07;94293.75;;;3.19;100.00
35989;BME280;22064;42.672;23.282;2023-04-06T09:21:33;94295.91;;;3.22;100.00
35989;BME280;22064;42.672;23.282;2023-04-06T09:24:01;94301.69;;;3.18;100.00
35989;BME280;22064;42.672;23.282;2023-04-06T09:26:27;94306.13;;;2.84;100.00
35989;BME280;22064;42.672;23.282;2023-04-06T09:28:54;94286.97;;;2.73;100.00
35989;BME280;22064;42.672;23.282;2023-04-06T09:31:29;94317.19;;;2.91;100.00
35989;BME280;22064;42.672;23.282;2023-04-06T09:33:56;94290.44;;;2.99;100.00
35989;BME280;22064;42.672;23.282;2023-04-06T09:36:33;94282.59;;;3.32;100.00
35989;BME280;22064;42.672;23.282;2023-04-06T09:39:02;94293.72;;;3.64;100.00
35989;BME280;22064;42.672;23.282;2023-04-06T09:41:33;94304.31;;;3.50;100.00
35989;BME280;22064;42.672;23.282;2023-04-06T09:46:39;94289.75;;;2.72;100.00
35989;BME280;22064;42.672;23.282;2023-04-06T09:49:07;94297.75;;;3.02;100.00
35989;BME280;22064;42.672;23.282;2023-04-06T09:51:39;94275.59;;;3.08;100.00
35989;BME280;22064;42.672;23.282;2023-04-06T09:54:06;94283.34;;;3.46;100.00
35989;BME280;22064;42.672;23.282;2023-04-06T09:59:31;94289.38;;;3.65;100.00
35989;BME280;22064;42.672;23.282;2023-04-06T10:02:05;94293.56;;;3.59;100.00
35989;BME280;22064;42.672;23.282;2023-04-06T10:04:43;94294.13;;;3.23;97.06
35989;BME280;22064;42.672;23.282;2023-04-06T10:07:13;94281.41;;;3.35;100.00
35989;BME280;22064;42.672;23.282;2023-04-06T10:09:43;94270.97;;;3.61;98.43
35989;BME280;22064;42.672;23.282;2023-04-06T10:12:12;94286.41;;;3.68;96.56
35989;BME280;22064;42.672;23.282;2023-04-06T10:14:39;94286.19;;;3.31;95.47
35989;BME280;22064;42.672;23.282;2023-04-06T10:17:06;94290.31;;;3.32;92.57
35989;BME280;22064;42.672;23.282;2023-04-06T10:19:49;94277.84;;;2.91;100.00
35989;BME280;22064;42.672;23.282;2023-04-06T10:22:29;94269.88;;;2.99;100.00
35989;BME280;22064;42.672;23.282;2023-04-06T10:24:58;94268.25;;;3.11;100.00
35989;BME280;22064;42.672;23.282;2023-04-06T10:27:28;94260.38;;;3.44;100.00
35989;BME280;22064;42.672;23.282;2023-04-06T10:30:01;94271.16;;;3.28;100.00
35989;BME280;22064;42.672;23.282;2023-04-06T10:32:35;94271.09;;;3.41;100.00
35989;BME280;22064;42.672;23.282;2023-04-06T10:35:09;94263.47;;;3.60;96.27
35989;BME280;22064;42.672;23.282;2023-04-06T10:38:01;94253.66;;;3.75;96.54
35989;BME280;22064;42.672;23.282;2023-04-06T10:40:28;94252.41;;;3.53;97.11
35989;BME280;22064;42.672;23.282;2023-04-06T10:42:55;94250.03;;;3.83;91.58
35989;BME280;22064;42.672;23.282;2023-04-06T10:45:24;94260.38;;;3.76;96.45
35989;BME280;22064;42.672;23.282;2023-04-06T10:47:54;94272.50;;;3.69;97.67
35989;BME280;22064;42.672;23.282;2023-04-06T10:50:21;94267.91;;;3.46;100.00
35989;BME280;22064;42.672;23.282;2023-04-06T10:52:58;94275.91;;;3.63;100.00
35989;BME280;22064;42.672;23.282;2023-04-06T10:55:26;94263.53;;;3.46;100.00
35989;BME280;22064;42.672;23.282;2023-04-06T10:57:53;94265.59;;;3.94;100.00
35989;BME280;22064;42.672;23.282;2023-04-06T11:00:19;94249.06;;;4.09;100.00
35989;BME280;22064;42.672;23.282;2023-04-06T11:02:46;94259.72;;;4.12;92.49
35989;BME280;22064;42.672;23.282;2023-04-06T11:05:13;94261.44;;;3.68;88.43
35989;BME280;22064;42.672;23.282;2023-04-06T11:07:40;94252.41;;;3.53;95.63
35989;BME280;22064;42.672;23.282;2023-04-06T11:10:08;94263.06;;;3.88;90.64
35989;BME280;22064;42.672;23.282;2023-04-06T11:12:34;94245.22;;;4.18;90.97
35989;BME280;22064;42.672;23.282;2023-04-06T11:15:02;94257.25;;;3.67;90.01
35989;BME280;22064;42.672;23.282;2023-04-06T11:17:35;94234.69;;;3.94;94.65
35989;BME280;22064;42.672;23.282;2023-04-06T11:20:03;94256.84;;;4.27;91.04
35989;BME280;22064;42.672;23.282;2023-04-06T11:22:31;94249.63;;;4.11;84.82
35989;BME280;22064;42.672;23.282;2023-04-06T11:25:07;94250.44;;;4.30;84.90
35989;BME280;22064;42.672;23.282;2023-04-06T11:27:34;94246.34;;;4.22;89.16
35989;BME280;22064;42.672;23.282;2023-04-06T11:30:01;94245.69;;;4.08;87.76
35989;BME280;22064;42.672;23.282;2023-04-06T11:32:28;94242.16;;;4.03;90.20
35989;BME280;22064;42.672;23.282;2023-04-06T11:34:57;94225.34;;;4.44;87.51
35989;BME280;22064;42.672;23.282;2023-04-06T11:37:26;94233.84;;;4.01;87.86
35989;BME280;22064;42.672;23.282;2023-04-06T11:39:54;94242.22;;;4.21;90.41
35989;BME280;22064;42.672;23.282;2023-04-06T11:42:25;94251.25;;;4.05;89.98
35989;BME280;22064;42.672;23.282;2023-04-06T11:44:54;94236.53;;;4.12;90.32
35989;BME280;22064;42.672;23.282;2023-04-06T11:47:27;94214.81;;;4.02;91.85
35989;BME280;22064;42.672;23.282;2023-04-06T11:49:53;94213.41;;;4.06;89.75
35989;BME280;22064;42.672;23.282;2023-04-06T11:52:24;94222.34;;;4.03;87.46
35989;BME280;22064;42.672;23.282;2023-04-06T11:54:52;94218.50;;;4.12;87.85
35989;BME280;22064;42.672;23.282;2023-04-06T11:57:19;94208.66;;;4.28;84.69
35989;BME280;22064;42.672;23.282;2023-04-06T11:59:46;94215.16;;;4.30;85.12
35989;BME280;22064;42.672;23.282;2023-04-06T12:02:12;94213.16;;;4.51;82.35
35989;BME280;22064;42.672;23.282;2023-04-06T12:04:38;94210.78;;;4.31;81.66
35989;BME280;22064;42.672;23.282;2023-04-06T12:07:05;94200.28;;;4.69;80.16
35989;BME280;22064;42.672;23.282;2023-04-06T12:09:31;94213.88;;;4.21;79.81
35989;BME280;22064;42.672;23.282;2023-04-06T12:11:57;94204.28;;;4.28;81.39
35989;BME280;22064;42.672;23.282;2023-04-06T12:14:23;94239.94;;;4.06;83.21
35989;BME280;22064;42.672;23.282;2023-04-06T12:16:49;94198.50;;;4.08;87.75
35989;BME280;22064;42.672;23.282;2023-04-06T12:19:16;94208.25;;;4.06;90.73
35989;BME280;22064;42.672;23.282;2023-04-06T12:21:41;94223.53;;;4.01;92.30
35989;BME280;22064;42.672;23.282;2023-04-06T12:24:08;94208.56;;;3.91;92.52
35989;BME280;22064;42.672;23.282;2023-04-06T12:26:35;94200.22;;;4.14;94.18
35989;BME280;22064;42.672;23.282;2023-04-06T12:29:02;94205.13;;;4.22;88.75
35989;BME280;22064;42.672;23.282;2023-04-06T12:31:35;94195.19;;;4.26;91.86
35989;BME280;22064;42.672;23.282;2023-04-06T12:34:02;94198.09;;;4.29;90.42
35989;BME280;22064;42.672;23.282;2023-04-06T12:36:29;94194.75;;;4.29;86.10
35989;BME280;22064;42.672;23.282;2023-04-06T12:38:55;94200.56;;;4.43;85.96
35989;BME280;22064;42.672;23.282;2023-04-06T12:41:21;94207.88;;;4.27;79.75
35989;BME280;22064;42.672;23.282;2023-04-06T12:43:48;94204.63;;;4.32;74.38
35989;BME280;22064;42.672;23.282;2023-04-06T12:46:15;94190.63;;;4.46;73.98
35989;BME280;22064;42.672;23.282;2023-04-06T12:48:42;94178.59;;;4.58;76.59
35989;BME280;22064;42.672;23.282;2023-04-06T12:51:08;94177.84;;;4.51;73.05
35989;BME280;22064;42.672;23.282;2023-04-06T12:53:34;94180.50;;;4.63;68.99
35989;BME280;22064;42.672;23.282;2023-04-06T12:56:02;94183.94;;;4.75;70.86
35989;BME280;22064;42.672;23.282;2023-04-06T12:58:28;94164.91;;;4.39;72.38
35989;BME280;22064;42.672;23.282;2023-04-06T13:00:57;94178.19;;;4.73;74.19
35989;BME280;22064;42.672;23.282;2023-04-06T13:03:28;94186.41;;;4.52;68.57